Time;durP1;ratioP1;P1;durP2;ratioP2;P2;SDS_P1;SDS_P2;PMS_P1;PMS_P2;Temp;Humidity;BMP_temperature;BMP_pressure;BME280_temperature;BME280_humidity;BME280_pressure;Samples;Min_cycle;Max_cycle;Signal;HPM_P1;HPM_P2
2023/07/02 00:00:59;;;;;;;8.52;4.13;;;19.10;81.90;;;;;;5086609;28;20024;-68
2023/07/02 00:03:24;;;;;;;5.97;3.50;;;19.10;82.40;;;;;;5091170;28;20019;-68
2023/07/02 00:05:53;;;;;;;7.22;3.25;;;19.00;82.60;;;;;;5093037;28;20098;-68
2023/07/02 00:08:18;;;;;;;5.20;3.03;;;19.00;82.70;;;;;;5093491;28;20027;-68
2023/07/02 00:10:44;;;;;;;9.32;3.53;;;19.10;82.80;;;;;;5094801;28;20028;-68
2023/07/02 00:13:10;;;;;;;7.50;3.88;;;19.00;82.90;;;;;;5094272;28;20103;-68
2023/07/02 00:15:35;;;;;;;8.55;3.83;;;19.00;83.20;;;;;;5089255;28;20028;-67
2023/07/02 00:18:01;;;;;;;9.38;4.68;;;19.00;83.50;;;;;;5095246;28;20027;-67
2023/07/02 00:20:26;;;;;;;10.48;4.07;;;18.90;83.60;;;;;;5095794;28;20012;-68
2023/07/02 00:22:54;;;;;;;5.07;3.40;;;18.90;83.70;;;;;;5096761;28;20091;-68
2023/07/02 00:25:20;;;;;;;8.63;4.88;;;19.00;83.70;;;;;;5080318;28;20031;-67
2023/07/02 00:27:45;;;;;;;9.23;4.38;;;19.00;83.80;;;;;;5093757;28;20020;-67
2023/07/02 00:30:11;;;;;;;8.10;4.60;;;19.00;83.90;;;;;;5078746;28;20119;-67
2023/07/02 00:32:37;;;;;;;11.32;5.20;;;19.00;84.10;;;;;;5083500;28;20024;-67
2023/07/02 00:35:03;;;;;;;8.90;4.88;;;18.90;84.10;;;;;;5092279;28;20386;-66
2023/07/02 00:37:28;;;;;;;8.10;4.70;;;19.00;84.20;;;;;;5087333;28;20068;-66
2023/07/02 00:39:54;;;;;;;8.88;4.50;;;18.90;84.20;;;;;;5081082;28;20483;-67
2023/07/02 00:42:20;;;;;;;13.93;6.03;;;19.00;84.30;;;;;;5092824;28;20020;-67
2023/07/02 00:44:45;;;;;;;9.05;4.75;;;18.90;84.40;;;;;;5077337;28;20036;-67
2023/07/02 00:47:12;;;;;;;10.43;5.22;;;18.90;84.60;;;;;;5089589;28;20106;-67
2023/07/02 00:49:39;;;;;;;9.40;5.20;;;18.90;84.50;;;;;;5080811;28;20024;-66
2023/07/02 00:52:06;;;;;;;10.23;5.57;;;18.80;84.30;;;;;;5092909;28;20043;-68
2023/07/02 00:54:31;;;;;;;9.35;4.70;;;18.70;83.90;;;;;;5085260;28;20025;-67
2023/07/02 00:57:02;;;;;;;11.88;5.22;;;18.70;83.70;;;;;;5081392;28;20487;-68
2023/07/02 00:59:29;;;;;;;8.57;4.50;;;18.70;83.60;;;;;;5077665;28;20035;-67
2023/07/02 01:01:56;;;;;;;9.07;4.93;;;18.50;83.40;;;;;;5097197;28;20019;-67
2023/07/02 01:04:27;;;;;;;7.88;4.57;;;18.50;83.30;;;;;;5103674;28;20429;-68
2023/07/02 01:06:57;;;;;;;9.90;4.68;;;18.40;83.30;;;;;;5088408;28;20074;-66
2023/07/02 01:09:26;;;;;;;9.43;5.10;;;18.40;83.40;;;;;;5082025;28;20021;-67
2023/07/02 01:12:00;;;;;;;11.20;5.60;;;18.30;83.70;;;;;;5074184;28;20029;-68
2023/07/02 01:14:51;;;;;;;8.50;5.18;;;18.30;83.60;;;;;;5088942;28;20092;-68
2023/07/02 01:17:19;;;;;;;7.68;4.65;;;18.20;83.50;;;;;;5069072;28;20121;-67
2023/07/02 01:19:53;;;;;;;9.80;5.30;;;18.10;83.50;;;;;;5085759;28;20032;-65
2023/07/02 01:22:24;;;;;;;10.15;5.10;;;18.10;83.40;;;;;;5073188;28;20037;-67
2023/07/02 01:24:51;;;;;;;9.15;4.78;;;18.00;83.40;;;;;;5070231;28;20504;-68
2023/07/02 01:27:17;;;;;;;8.02;5.07;;;18.00;83.50;;;;;;5087244;28;20024;-68
2023/07/02 01:29:45;;;;;;;9.15;4.70;;;17.90;83.60;;;;;;5082649;28;20395;-68
2023/07/02 01:32:10;;;;;;;8.20;4.68;;;17.90;83.60;;;;;;5088700;28;20390;-69
2023/07/02 01:34:36;;;;;;;13.27;5.78;;;17.90;83.60;;;;;;5084123;28;20027;-68
2023/07/02 01:37:04;;;;;;;10.73;5.40;;;17.80;83.70;;;;;;5077070;28;20066;-68
2023/07/02 01:39:29;;;;;;;8.63;4.80;;;17.80;83.80;;;;;;5089109;28;20654;-68
2023/07/02 01:42:06;;;;;;;11.02;5.60;;;17.80;83.90;;;;;;5090565;28;20016;-68
2023/07/02 01:44:32;;;;;;;7.97;4.90;;;17.70;83.80;;;;;;5088926;28;20081;-68
2023/07/02 01:46:58;;;;;;;11.25;4.95;;;17.70;83.80;;;;;;5087490;28;20028;-67
2023/07/02 01:49:25;;;;;;;8.30;4.70;;;17.60;83.80;;;;;;5088950;28;20429;-67
2023/07/02 01:51:54;;;;;;;7.93;4.50;;;17.60;83.80;;;;;;5080816;28;20417;-67
2023/07/02 01:54:22;;;;;;;8.05;4.57;;;17.60;83.80;;;;;;5090853;28;20028;-67
2023/07/02 01:56:47;;;;;;;10.73;5.47;;;17.50;83.60;;;;;;5088313;28;20031;-68
2023/07/02 01:59:14;;;;;;;11.23;6.40;;;17.50;83.70;;;;;;5075216;28;20119;-68
2023/07/02 02:01:40;;;;;;;9.73;5.30;;;17.40;83.50;;;;;;5072426;28;20452;-68
2023/07/02 02:04:07;;;;;;;8.35;4.40;;;17.40;83.50;;;;;;5071049;28;20115;-68
2023/07/02 02:06:32;;;;;;;8.75;5.25;;;17.30;83.50;;;;;;5080599;28;20506;-67
2023/07/02 02:08:58;;;;;;;8.77;5.03;;;17.30;83.60;;;;;;5084912;28;20024;-66
2023/07/02 02:11:24;;;;;;;8.75;4.75;;;17.30;83.70;;;;;;5085728;28;20096;-68
2023/07/02 02:13:50;;;;;;;9.27;5.07;;;17.20;83.70;;;;;;5086904;28;20111;-68
2023/07/02 02:16:15;;;;;;;9.07;4.68;;;17.20;83.70;;;;;;5081442;28;20510;-68
2023/07/02 02:18:41;;;;;;;10.35;5.45;;;17.10;83.80;;;;;;5073800;28;20055;-67
2023/07/02 02:21:06;;;;;;;12.27;5.88;;;17.10;83.90;;;;;;5087092;28;20020;-69
2023/07/02 02:23:32;;;;;;;10.52;5.00;;;17.00;83.90;;;;;;5078695;28;20035;-69
2023/07/02 02:25:58;;;;;;;12.05;5.57;;;16.90;83.90;;;;;;5070535;28;20028;-68
2023/07/02 02:28:23;;;;;;;9.93;5.60;;;16.90;83.90;;;;;;5071554;28;20032;-66
2023/07/02 02:30:49;;;;;;;8.50;4.97;;;16.90;84.00;;;;;;5074858;28;20390;-68
2023/07/02 02:33:14;;;;;;;10.35;5.13;;;16.90;84.10;;;;;;5084524;28;20025;-67
2023/07/02 02:35:40;;;;;;;9.15;5.13;;;16.90;84.20;;;;;;5070221;28;20095;-67
2023/07/02 02:38:05;;;;;;;12.25;5.72;;;16.80;84.30;;;;;;5070613;28;20032;-68
2023/07/02 02:40:31;;;;;;;10.30;5.07;;;16.80;84.30;;;;;;5077880;28;20051;-68
2023/07/02 02:42:56;;;;;;;9.02;5.32;;;16.70;84.30;;;;;;5087444;28;20028;-68
2023/07/02 02:45:22;;;;;;;9.27;5.15;;;16.70;84.40;;;;;;5074524;28;20499;-67
2023/07/02 02:47:47;;;;;;;9.02;5.13;;;16.70;85.00;;;;;;5075028;28;20566;-67
2023/07/02 02:50:13;;;;;;;10.55;5.35;;;16.60;84.30;;;;;;5074579;28;20112;-68
2023/07/02 02:52:39;;;;;;;10.25;5.28;;;16.60;84.50;;;;;;5084794;28;20032;-69
2023/07/02 02:55:06;;;;;;;12.40;5.80;;;16.60;84.50;;;;;;5081633;28;20128;-68
2023/07/02 02:57:33;;;;;;;12.48;6.53;;;16.60;84.50;;;;;;5088646;28;20106;-68
2023/07/02 02:59:58;;;;;;;11.18;4.95;;;16.60;84.50;;;;;;5082380;28;20667;-68
2023/07/02 03:02:24;;;;;;;10.38;5.40;;;16.60;84.50;;;;;;5097308;28;20028;-67
2023/07/02 03:04:50;;;;;;;11.80;5.03;;;16.60;84.50;;;;;;5087583;28;20059;-68
2023/07/02 03:07:16;;;;;;;9.15;5.07;;;16.60;84.40;;;;;;5088949;28;20028;-68
2023/07/02 03:09:41;;;;;;;12.23;5.80;;;16.60;84.30;;;;;;5084666;28;20390;-67
2023/07/02 03:12:07;;;;;;;10.90;5.28;;;16.60;84.10;;;;;;5079853;28;20025;-70
2023/07/02 03:14:33;;;;;;;11.07;5.60;;;16.60;83.90;;;;;;5079332;28;20012;-69
2023/07/02 03:16:58;;;;;;;11.32;5.90;;;16.60;83.90;;;;;;5077646;28;20029;-68
2023/07/02 03:19:24;;;;;;;10.02;5.60;;;16.60;83.60;;;;;;5074758;28;20494;-68
2023/07/02 03:21:50;;;;;;;10.55;5.05;;;16.70;83.60;;;;;;5081251;28;20031;-67
2023/07/02 03:24:16;;;;;;;10.65;5.50;;;16.60;83.40;;;;;;5071449;28;20031;-67
2023/07/02 03:26:42;;;;;;;10.18;5.47;;;16.60;83.40;;;;;;5080684;28;20017;-68
2023/07/02 03:29:08;;;;;;;10.00;5.57;;;16.70;83.40;;;;;;5081143;28;20035;-67
2023/07/02 03:31:34;;;;;;;11.93;5.88;;;16.60;83.30;;;;;;5069720;28;20025;-68
2023/07/02 03:34:09;;;;;;;11.60;5.95;;;16.70;83.30;;;;;;5076793;28;20117;-67
2023/07/02 03:36:38;;;;;;;9.32;4.95;;;16.70;83.20;;;;;;5069537;28;20380;-67
2023/07/02 03:39:04;;;;;;;12.98;6.75;;;16.70;83.20;;;;;;5071410;28;20040;-68
2023/07/02 03:41:30;;;;;;;11.88;6.35;;;16.70;83.20;;;;;;5080063;28;20017;-67
2023/07/02 03:43:55;;;;;;;12.57;5.35;;;16.70;83.00;;;;;;5073108;28;20042;-67
2023/07/02 03:46:21;;;;;;;10.60;5.47;;;16.70;82.90;;;;;;5084921;28;20056;-68
2023/07/02 03:48:47;;;;;;;16.20;6.03;;;16.70;82.90;;;;;;5088240;28;20028;-67
2023/07/02 03:51:14;;;;;;;11.40;5.88;;;16.70;82.80;;;;;;5089190;28;20056;-67
2023/07/02 03:53:40;;;;;;;11.82;5.82;;;16.60;82.90;;;;;;5077465;28;20016;-67
2023/07/02 03:56:05;;;;;;;11.48;5.40;;;16.60;82.90;;;;;;5087532;28;20090;-67
2023/07/02 03:58:31;;;;;;;11.50;5.93;;;16.70;82.90;;;;;;5078293;28;20071;-68
2023/07/02 04:00:56;;;;;;;12.43;5.78;;;16.70;82.90;;;;;;5080630;28;20382;-68
2023/07/02 04:03:22;;;;;;;9.90;5.40;;;16.60;82.70;;;;;;5084734;28;20115;-66
2023/07/02 04:05:47;;;;;;;9.25;5.57;;;16.60;83.40;;;;;;5093768;28;20486;-66
2023/07/02 04:08:15;;;;;;;10.90;5.70;;;16.60;82.70;;;;;;5086572;28;20056;-67
2023/07/02 04:10:40;;;;;;;13.18;5.82;;;16.60;82.60;;;;;;5084782;28;20032;-65
2023/07/02 04:13:06;;;;;;;11.15;5.88;;;16.60;82.50;;;;;;5099142;28;20478;-67
2023/07/02 04:15:32;;;;;;;10.23;5.68;;;16.50;82.30;;;;;;5094528;28;20382;-69
2023/07/02 04:17:57;;;;;;;10.63;5.40;;;16.60;82.20;;;;;;5088810;28;20025;-68
2023/07/02 04:20:23;;;;;;;12.85;6.20;;;16.60;82.20;;;;;;5079477;28;20039;-68
2023/07/02 04:22:48;;;;;;;12.35;6.03;;;16.60;82.20;;;;;;5085510;28;20023;-67
2023/07/02 04:25:15;;;;;;;12.80;5.95;;;16.50;82.20;;;;;;5075073;28;20020;-68
2023/07/02 04:27:44;;;;;;;13.43;6.40;;;16.60;82.00;;;;;;5073106;28;20036;-68
2023/07/02 04:30:11;;;;;;;12.52;5.88;;;16.60;81.90;;;;;;5089562;28;20024;-67
2023/07/02 04:32:40;;;;;;;10.32;5.25;;;16.60;81.70;;;;;;5072856;28;20029;-67
2023/07/02 04:35:07;;;;;;;10.68;5.32;;;16.60;81.60;;;;;;5079255;28;20035;-69
2023/07/02 04:37:33;;;;;;;9.75;5.13;;;16.60;81.30;;;;;;5091885;28;20024;-67
2023/07/02 04:39:59;;;;;;;14.32;6.20;;;16.70;81.40;;;;;;5073237;28;20016;-68
2023/07/02 04:42:31;;;;;;;11.75;5.80;;;16.70;81.10;;;;;;5090867;28;20099;-68
2023/07/02 04:45:02;;;;;;;11.40;5.75;;;16.70;81.00;;;;;;5085151;28;20099;-68
2023/07/02 04:47:28;;;;;;;12.55;6.50;;;16.70;80.70;;;;;;5081338;28;20108;-67
2023/07/02 04:49:54;;;;;;;12.77;6.18;;;16.70;80.40;;;;;;5072767;28;20111;-66
2023/07/02 04:52:19;;;;;;;14.43;6.25;;;16.80;80.20;;;;;;5076891;28;20025;-68
2023/07/02 04:54:45;;;;;;;15.25;6.63;;;16.80;79.80;;;;;;5081034;28;20489;-68
2023/07/02 04:57:10;;;;;;;14.52;6.57;;;16.90;79.50;;;;;;5075174;28;20101;-68
2023/07/02 04:59:36;;;;;;;14.70;6.22;;;17.20;78.90;;;;;;5079321;28;20395;-66
2023/07/02 05:02:02;;;;;;;13.95;5.82;;;17.70;77.60;;;;;;5084198;28;20048;-68
2023/07/02 05:04:27;;;;;;;13.88;6.55;;;18.00;76.30;;;;;;5098139;28;20059;-69
2023/07/02 05:06:53;;;;;;;13.02;6.13;;;18.30;75.10;;;;;;5085680;28;20111;-69
2023/07/02 05:09:19;;;;;;;11.70;6.10;;;18.60;73.90;;;;;;5081268;28;20016;-68
2023/07/02 05:11:44;;;;;;;12.18;6.47;;;18.90;72.90;;;;;;5090028;28;20028;-68
2023/07/02 05:14:10;;;;;;;15.55;6.28;;;19.20;71.80;;;;;;5090141;28;20111;-68
2023/07/02 05:16:35;;;;;;;11.40;6.53;;;19.30;70.90;;;;;;5086877;28;20039;-68
2023/07/02 05:19:01;;;;;;;13.52;6.00;;;19.50;70.40;;;;;;5077174;28;20024;-67
2023/07/02 05:21:26;;;;;;;15.02;6.93;;;19.70;69.70;;;;;;5085767;28;20502;-67
2023/07/02 05:23:52;;;;;;;11.90;5.72;;;19.90;69.00;;;;;;5076845;28;20024;-70
2023/07/02 05:26:17;;;;;;;12.98;6.32;;;19.90;68.50;;;;;;5077839;28;20093;-68
2023/07/02 05:28:44;;;;;;;16.73;6.93;;;20.00;68.20;;;;;;5074409;28;20852;-69
2023/07/02 05:31:10;;;;;;;13.38;6.40;;;20.10;67.70;;;;;;5074538;28;20075;-68
2023/07/02 05:33:35;;;;;;;13.63;6.68;;;19.70;68.30;;;;;;5080432;28;20519;-68
2023/07/02 05:36:01;;;;;;;14.40;6.25;;;19.40;69.10;;;;;;5089141;28;20552;-68
2023/07/02 05:38:26;;;;;;;11.80;5.35;;;19.20;69.70;;;;;;5075405;28;20115;-67
2023/07/02 05:40:52;;;;;;;12.63;6.13;;;19.10;70.10;;;;;;5071574;28;20522;-67
2023/07/02 05:43:18;;;;;;;11.85;5.97;;;19.00;70.20;;;;;;5072388;28;20023;-66
2023/07/02 05:45:44;;;;;;;13.75;6.07;;;19.00;70.30;;;;;;5090184;28;20111;-68
2023/07/02 05:48:09;;;;;;;12.57;6.45;;;19.00;70.30;;;;;;5089175;28;20028;-66
2023/07/02 05:50:35;;;;;;;15.55;6.82;;;19.10;69.70;;;;;;5088855;28;20034;-67
2023/07/02 05:53:00;;;;;;;14.70;6.68;;;19.00;69.50;;;;;;5076544;28;20095;-69
2023/07/02 05:55:26;;;;;;;16.85;6.72;;;19.20;69.40;;;;;;5071354;28;20526;-69
2023/07/02 05:57:52;;;;;;;18.73;7.15;;;19.10;69.00;;;;;;5073259;28;20028;-66
2023/07/02 06:00:17;;;;;;;13.45;6.18;;;19.00;68.90;;;;;;5075949;28;20040;-66
2023/07/02 06:02:46;;;;;;;17.95;7.15;;;19.00;69.10;;;;;;5075467;28;20394;-66
2023/07/02 06:05:11;;;;;;;12.90;6.35;;;19.20;69.00;;;;;;5085315;28;20021;-66
2023/07/02 06:07:37;;;;;;;13.27;5.78;;;19.30;68.50;;;;;;5077904;28;20089;-69
2023/07/02 06:10:03;;;;;;;17.63;7.30;;;19.50;68.40;;;;;;5079321;28;20043;-69
2023/07/02 06:12:29;;;;;;;14.23;6.50;;;19.40;67.70;;;;;;5096213;28;20035;-69
2023/07/02 06:14:55;;;;;;;12.02;6.68;;;19.50;67.90;;;;;;5077170;28;20028;-68
2023/07/02 06:17:22;;;;;;;12.85;5.50;;;19.40;67.70;;;;;;5073326;28;20024;-67
2023/07/02 06:19:48;;;;;;;15.07;6.53;;;19.50;67.80;;;;;;5082415;28;20012;-68
2023/07/02 06:22:13;;;;;;;11.55;5.82;;;19.70;67.70;;;;;;5089159;28;20043;-68
2023/07/02 06:24:39;;;;;;;14.65;6.45;;;19.90;67.40;;;;;;5078477;28;20024;-67
2023/07/02 06:27:04;;;;;;;13.70;6.00;;;19.90;66.50;;;;;;5081204;28;20513;-67
2023/07/02 06:29:30;;;;;;;14.60;6.63;;;19.80;66.00;;;;;;5083084;28;20034;-66
2023/07/02 06:31:56;;;;;;;14.18;7.03;;;19.70;66.00;;;;;;5074206;28;20074;-68
2023/07/02 06:34:21;;;;;;;12.73;6.05;;;19.60;66.00;;;;;;5082618;28;20021;-68
2023/07/02 06:36:48;;;;;;;13.98;6.32;;;19.70;66.40;;;;;;5090493;28;20050;-66
2023/07/02 06:39:14;;;;;;;12.82;5.72;;;19.70;66.10;;;;;;5079491;28;20044;-66
2023/07/02 06:41:39;;;;;;;14.32;6.63;;;19.70;66.50;;;;;;5088435;28;20070;-68
2023/07/02 06:44:05;;;;;;;13.45;6.50;;;19.70;65.90;;;;;;5088814;28;20081;-65
2023/07/02 06:46:30;;;;;;;13.38;6.30;;;19.60;66.00;;;;;;5092066;28;20095;-66
2023/07/02 06:48:56;;;;;;;10.40;5.20;;;19.60;65.60;;;;;;5085319;28;20028;-66
2023/07/02 06:51:22;;;;;;;11.13;5.60;;;19.60;65.90;;;;;;5076356;28;20059;-66
2023/07/02 06:53:48;;;;;;;12.10;5.47;;;19.60;65.70;;;;;;5079862;28;20391;-66
2023/07/02 06:56:14;;;;;;;10.63;5.40;;;19.60;65.70;;;;;;5081959;28;20052;-67
2023/07/02 06:58:42;;;;;;;13.00;5.72;;;19.70;65.90;;;;;;5078556;28;20505;-67
2023/07/02 07:01:08;;;;;;;11.75;5.55;;;19.70;65.80;;;;;;5076826;28;20028;-67
2023/07/02 07:03:35;;;;;;;13.57;6.05;;;19.60;65.50;;;;;;5080128;28;20021;-67
2023/07/02 07:06:00;;;;;;;11.68;5.90;;;19.60;65.20;;;;;;5081789;28;20051;-67
2023/07/02 07:08:26;;;;;;;13.90;5.88;;;19.60;65.10;;;;;;5078882;28;20016;-66
2023/07/02 07:10:52;;;;;;;11.90;6.13;;;19.70;65.00;;;;;;5083638;28;20539;-67
2023/07/02 07:13:17;;;;;;;11.70;5.47;;;19.70;64.60;;;;;;5073061;28;20036;-67
2023/07/02 07:15:43;;;;;;;12.60;5.75;;;19.70;64.60;;;;;;5083592;28;20058;-67
2023/07/02 07:18:09;;;;;;;16.27;5.65;;;19.70;64.40;;;;;;5089321;28;20056;-67
2023/07/02 07:20:35;;;;;;;9.90;5.22;;;19.60;64.30;;;;;;5079295;28;20428;-67
2023/07/02 07:23:03;;;;;;;11.18;5.88;;;19.70;64.50;;;;;;5074734;28;20043;-66
2023/07/02 07:25:28;;;;;;;11.50;5.57;;;19.70;64.10;;;;;;5076745;28;20032;-66
2023/07/02 07:27:54;;;;;;;15.98;6.57;;;19.70;63.90;;;;;;5088872;28;20056;-66
2023/07/02 07:30:23;;;;;;;12.45;5.82;;;19.90;63.50;;;;;;5077131;28;20076;-67
2023/07/02 07:32:50;;;;;;;12.90;5.85;;;20.00;63.60;;;;;;5076125;28;20033;-66
2023/07/02 07:35:16;;;;;;;9.75;5.18;;;20.30;63.30;;;;;;5073250;28;20157;-67
2023/07/02 07:37:42;;;;;;;10.85;5.57;;;20.40;63.20;;;;;;5090001;28;20020;-67
2023/07/02 07:40:08;;;;;;;13.98;5.95;;;20.60;62.60;;;;;;5088095;28;20032;-67
2023/07/02 07:42:34;;;;;;;9.38;5.25;;;20.70;62.10;;;;;;5074402;28;20029;-67
2023/07/02 07:44:59;;;;;;;12.30;5.75;;;20.90;62.00;;;;;;5084927;28;20111;-68
2023/07/02 07:47:25;;;;;;;9.13;5.20;;;20.90;61.90;;;;;;5087630;28;20029;-67
2023/07/02 07:49:50;;;;;;;11.73;5.70;;;21.00;61.90;;;;;;5083117;28;20386;-67
2023/07/02 07:52:16;;;;;;;12.68;6.22;;;20.90;61.00;;;;;;5074649;28;20039;-67
2023/07/02 07:54:42;;;;;;;10.57;5.38;;;20.80;60.90;;;;;;5090051;28;20099;-66
2023/07/02 07:57:07;;;;;;;8.00;4.72;;;20.90;61.00;;;;;;5091144;28;20510;-65
2023/07/02 07:59:33;;;;;;;12.50;5.68;;;21.10;61.40;;;;;;5073788;28;20461;-67
2023/07/02 08:01:58;;;;;;;13.65;5.90;;;21.10;61.00;;;;;;5077514;28;20062;-67
2023/07/02 08:04:24;;;;;;;10.90;5.45;;;21.20;60.50;;;;;;5076195;28;20386;-66
2023/07/02 08:06:50;;;;;;;9.60;5.32;;;21.40;60.30;;;;;;5086248;28;20031;-67
2023/07/02 08:09:15;;;;;;;11.05;5.60;;;21.50;60.10;;;;;;5089257;28;20023;-67
2023/07/02 08:11:41;;;;;;;12.02;5.22;;;21.60;59.60;;;;;;5085552;28;20032;-68
2023/07/02 08:14:07;;;;;;;10.43;5.80;;;21.60;58.60;;;;;;5079424;28;20130;-66
2023/07/02 08:16:32;;;;;;;8.65;5.15;;;21.60;58.50;;;;;;5091423;28;20023;-67
2023/07/02 08:18:58;;;;;;;11.43;4.70;;;21.70;58.40;;;;;;5094248;28;20102;-66
2023/07/02 08:21:23;;;;;;;11.75;5.25;;;21.80;58.60;;;;;;5083303;28;20028;-67
2023/07/02 08:23:49;;;;;;;9.00;4.50;;;21.90;57.70;;;;;;5091068;28;20034;-67
2023/07/02 08:26:14;;;;;;;9.70;5.10;;;22.00;57.20;;;;;;5085191;28;20029;-67
2023/07/02 08:28:40;;;;;;;9.38;4.80;;;22.00;56.60;;;;;;5082587;28;20107;-66
2023/07/02 08:31:06;;;;;;;9.07;4.60;;;22.00;56.20;;;;;;5081894;28;20020;-67
2023/07/02 08:33:31;;;;;;;10.57;4.88;;;22.00;55.70;;;;;;5092259;28;20847;-66
2023/07/02 08:35:57;;;;;;;8.27;4.18;;;22.00;53.90;;;;;;5084771;28;20040;-67
2023/07/02 08:38:23;;;;;;;9.40;4.47;;;21.80;54.20;;;;;;5081539;28;20051;-66
2023/07/02 08:40:49;;;;;;;14.73;5.07;;;21.80;54.20;;;;;;5081256;28;20028;-67
2023/07/02 08:43:15;;;;;;;11.10;4.50;;;21.70;54.20;;;;;;5081706;28;20039;-66
2023/07/02 08:45:44;;;;;;;8.93;4.78;;;21.40;53.80;;;;;;5082264;28;20025;-67
2023/07/02 08:48:13;;;;;;;8.48;4.80;;;21.20;53.80;;;;;;5081050;28;20614;-67
2023/07/02 08:50:39;;;;;;;7.50;4.30;;;21.20;53.50;;;;;;5084569;28;20119;-67
2023/07/02 08:53:04;;;;;;;8.60;4.45;;;21.30;53.70;;;;;;5079677;28;20903;-67
2023/07/02 08:55:30;;;;;;;8.05;4.60;;;21.30;53.10;;;;;;5081214;28;20116;-68
2023/07/02 08:57:59;;;;;;;8.13;4.20;;;21.40;53.80;;;;;;5083345;28;20017;-67
2023/07/02 09:00:26;;;;;;;8.45;4.60;;;21.50;53.50;;;;;;5081521;28;20518;-67
2023/07/02 09:02:51;;;;;;;8.93;5.15;;;21.60;53.50;;;;;;5083648;28;20028;-67
2023/07/02 09:05:17;;;;;;;8.52;4.50;;;21.40;53.10;;;;;;5080308;28;20028;-68
2023/07/02 09:07:45;;;;;;;7.50;4.53;;;21.50;54.00;;;;;;5086138;28;20032;-68
2023/07/02 09:10:11;;;;;;;8.55;4.18;;;21.60;54.00;;;;;;5091055;28;20031;-68
2023/07/02 09:12:38;;;;;;;10.75;5.03;;;21.70;54.10;;;;;;5084042;28;20035;-68
2023/07/02 09:15:08;;;;;;;9.30;5.10;;;21.60;53.20;;;;;;5087469;28;20032;-68
2023/07/02 09:17:37;;;;;;;8.45;4.93;;;21.40;52.60;;;;;;5076895;28;20020;-68
2023/07/02 09:20:08;;;;;;;7.90;4.03;;;21.10;53.20;;;;;;5076018;28;20028;-68
2023/07/02 09:22:34;;;;;;;8.95;4.47;;;21.00;53.80;;;;;;5081081;28;20851;-68
2023/07/02 09:25:01;;;;;;;7.60;4.10;;;21.20;53.70;;;;;;5080721;28;20070;-68
2023/07/02 09:27:38;;;;;;;8.73;4.18;;;21.40;53.70;;;;;;5073612;28;20025;-68
2023/07/02 09:30:15;;;;;;;9.30;4.85;;;21.60;53.10;;;;;;5079932;28;20027;-68
2023/07/02 09:32:42;;;;;;;9.93;4.70;;;21.60;52.10;;;;;;5097617;28;20099;-68
2023/07/02 09:35:08;;;;;;;8.07;4.13;;;21.50;51.50;;;;;;5089878;28;20020;-68
2023/07/02 09:37:34;;;;;;;7.72;3.92;;;21.60;51.80;;;;;;5084847;28;20028;-68
2023/07/02 09:40:01;;;;;;;7.18;4.32;;;21.80;51.90;;;;;;5085445;28;21418;-68
2023/07/02 09:42:28;;;;;;;6.55;3.92;;;21.90;50.90;;;;;;5086993;28;20034;-68
2023/07/02 09:44:55;;;;;;;9.43;4.07;;;21.80;49.70;;;;;;5083798;28;20069;-68
2023/07/02 09:47:22;;;;;;;9.32;3.72;;;21.80;49.40;;;;;;5082522;28;20747;-68
2023/07/02 09:50:05;;;;;;;7.35;3.63;;;21.90;48.60;;;;;;5078528;28;20032;-68
2023/07/02 09:52:33;;;;;;;6.63;3.70;;;22.10;48.80;;;;;;5078628;28;20027;-67
2023/07/02 09:54:59;;;;;;;8.00;4.25;;;22.20;48.20;;;;;;5085022;28;20658;-68
2023/07/02 09:57:24;;;;;;;7.28;3.47;;;22.30;47.10;;;;;;5084977;28;20029;-68
2023/07/02 09:59:50;;;;;;;7.20;3.58;;;22.20;47.10;;;;;;5082195;28;20087;-67
2023/07/02 10:02:16;;;;;;;6.15;3.20;;;22.20;47.10;;;;;;5080496;28;20078;-68
2023/07/02 10:04:46;;;;;;;7.35;3.58;;;22.20;47.30;;;;;;5085184;28;20486;-67
2023/07/02 10:07:13;;;;;;;8.90;3.58;;;22.30;47.60;;;;;;5084875;28;20031;-68
2023/07/02 10:09:46;;;;;;;5.88;3.47;;;22.30;47.00;;;;;;5083264;28;20024;-68
2023/07/02 10:12:23;;;;;;;8.02;3.30;;;22.40;47.40;;;;;;5086747;28;20032;-68
2023/07/02 10:14:51;;;;;;;6.80;3.55;;;22.50;47.50;;;;;;5080366;28;20047;-68
2023/07/02 10:17:54;;;;;;;5.07;3.30;;;22.40;47.00;;;;;;5083567;28;20024;-68
2023/07/02 10:20:38;;;;;;;6.90;3.90;;;22.30;47.30;;;;;;5083184;28;20584;-69
2023/07/02 10:23:06;;;;;;;7.15;3.50;;;22.20;46.90;;;;;;5083389;28;20038;-68
2023/07/02 10:25:34;;;;;;;5.68;3.05;;;22.30;46.90;;;;;;5082982;28;20105;-68
2023/07/02 10:28:00;;;;;;;6.47;3.00;;;22.20;47.00;;;;;;5079786;28;20024;-69
2023/07/02 10:30:37;;;;;;;6.25;2.95;;;22.20;47.30;;;;;;5080061;28;20116;-68
2023/07/02 10:33:16;;;;;;;5.95;3.22;;;22.20;47.20;;;;;;5085382;28;20039;-68
2023/07/02 10:35:44;;;;;;;7.28;3.38;;;22.20;47.00;;;;;;5086809;28;20628;-68
2023/07/02 10:38:19;;;;;;;6.13;3.13;;;22.20;46.80;;;;;;5087569;28;20074;-68
2023/07/02 10:40:45;;;;;;;5.00;3.17;;;22.30;46.60;;;;;;5081664;28;20035;-68
2023/07/02 10:43:11;;;;;;;4.88;2.72;;;22.40;45.90;;;;;;5080864;28;20036;-69
2023/07/02 10:45:37;;;;;;;6.07;3.10;;;22.50;46.20;;;;;;5080931;28;20103;-68
2023/07/02 10:48:04;;;;;;;6.10;3.20;;;22.40;45.90;;;;;;5086398;28;20586;-68
2023/07/02 10:50:31;;;;;;;7.72;3.50;;;22.30;45.60;;;;;;5087350;28;20103;-69
2023/07/02 10:52:57;;;;;;;5.32;3.08;;;22.20;45.20;;;;;;5084372;28;20028;-69
2023/07/02 10:55:24;;;;;;;5.50;3.28;;;22.10;45.90;;;;;;5089768;28;20084;-68
2023/07/02 10:58:01;;;;;;;6.25;3.30;;;22.10;45.60;;;;;;5087506;28;20070;-69
2023/07/02 11:00:27;;;;;;;5.13;3.10;;;22.10;45.40;;;;;;5085864;28;20471;-69
2023/07/02 11:02:53;;;;;;;6.68;3.40;;;22.10;45.60;;;;;;5080593;28;20016;-68
2023/07/02 11:05:18;;;;;;;4.85;3.00;;;22.20;45.40;;;;;;5087009;28;20040;-68
2023/07/02 11:07:45;;;;;;;5.95;3.17;;;22.20;45.60;;;;;;5086419;28;20024;-69
2023/07/02 11:10:18;;;;;;;5.75;3.10;;;22.30;45.70;;;;;;5083122;28;20078;-70
2023/07/02 11:12:43;;;;;;;5.57;3.53;;;22.30;45.40;;;;;;5086590;28;20081;-70
2023/07/02 11:15:14;;;;;;;5.97;3.15;;;22.30;45.80;;;;;;5085333;28;20112;-69
2023/07/02 11:17:41;;;;;;;4.47;3.05;;;22.30;45.10;;;;;;5081760;28;20498;-68
2023/07/02 11:20:08;;;;;;;4.53;3.08;;;22.30;45.00;;;;;;5089290;28;20139;-68
2023/07/02 11:22:35;;;;;;;5.97;3.40;;;22.30;44.80;;;;;;5085608;28;20067;-69
2023/07/02 11:25:16;;;;;;;5.25;3.20;;;22.30;44.60;;;;;;5085960;28;20070;-68
2023/07/02 11:27:42;;;;;;;5.85;3.13;;;22.20;44.70;;;;;;5084671;28;20036;-69
2023/07/02 11:30:09;;;;;;;4.38;2.63;;;22.20;44.90;;;;;;5082088;28;20463;-69
2023/07/02 11:32:52;;;;;;;6.63;3.00;;;22.30;44.70;;;;;;5079811;28;20024;-69
2023/07/02 11:35:18;;;;;;;6.07;3.13;;;22.50;44.30;;;;;;5082298;28;20028;-68
2023/07/02 11:37:45;;;;;;;4.97;2.97;;;22.60;44.10;;;;;;5086845;28;20025;-68
2023/07/02 11:40:11;;;;;;;5.20;3.00;;;22.80;44.00;;;;;;5087259;28;20044;-69
2023/07/02 11:42:37;;;;;;;5.13;2.97;;;23.00;43.80;;;;;;5080663;28;20162;-69
2023/07/02 11:45:03;;;;;;;6.70;2.92;;;23.20;43.80;;;;;;5082898;28;20032;-69
2023/07/02 11:47:29;;;;;;;5.70;3.05;;;23.20;43.00;;;;;;5080869;28;20380;-69
2023/07/02 11:49:55;;;;;;;5.72;3.00;;;23.30;43.00;;;;;;5084632;28;20049;-69
2023/07/02 11:52:21;;;;;;;5.45;3.30;;;23.40;42.80;;;;;;5082557;28;20043;-69
2023/07/02 11:54:47;;;;;;;5.93;2.88;;;23.60;42.60;;;;;;5085552;28;20045;-69
2023/07/02 11:57:12;;;;;;;4.68;2.58;;;23.70;42.80;;;;;;5085281;28;20103;-69
2023/07/02 11:59:38;;;;;;;5.47;3.05;;;23.90;42.60;;;;;;5084123;28;20111;-69
2023/07/02 12:02:04;;;;;;;4.30;2.60;;;24.20;42.50;;;;;;5081593;28;20033;-70
2023/07/02 12:04:29;;;;;;;5.38;3.10;;;24.30;42.00;;;;;;5084613;28;20027;-70
2023/07/02 12:06:55;;;;;;;4.95;3.00;;;24.30;41.50;;;;;;5081925;28;20036;-69
2023/07/02 12:09:21;;;;;;;5.07;2.95;;;24.40;41.20;;;;;;5081943;28;20042;-69
2023/07/02 12:11:47;;;;;;;4.78;2.78;;;24.60;40.90;;;;;;5086411;28;20624;-69
2023/07/02 12:14:12;;;;;;;6.38;3.10;;;24.80;40.50;;;;;;5077992;28;20095;-69
2023/07/02 12:16:38;;;;;;;5.40;2.83;;;24.80;39.70;;;;;;5085126;28;20107;-69
2023/07/02 12:19:04;;;;;;;5.50;2.92;;;24.60;39.60;;;;;;5085408;28;20043;-69
2023/07/02 12:21:29;;;;;;;4.05;2.90;;;24.40;40.10;;;;;;5089031;28;20024;-69
2023/07/02 12:23:55;;;;;;;4.82;3.30;;;24.30;40.50;;;;;;5089469;28;20584;-70
2023/07/02 12:26:20;;;;;;;4.80;3.08;;;24.20;39.90;;;;;;5084363;28;20021;-68
2023/07/02 12:28:46;;;;;;;3.72;2.75;;;24.30;40.00;;;;;;5082448;28;20024;-69
2023/07/02 12:31:12;;;;;;;6.85;3.65;;;24.40;40.00;;;;;;5087219;28;20489;-68
2023/07/02 12:33:38;;;;;;;6.82;3.50;;;24.30;39.40;;;;;;5083552;28;20027;-69
2023/07/02 12:36:04;;;;;;;5.47;2.90;;;24.20;39.70;;;;;;5091698;28;20097;-69
2023/07/02 12:38:30;;;;;;;5.82;3.30;;;24.20;40.00;;;;;;5083968;28;20050;-68
2023/07/02 12:40:55;;;;;;;4.07;3.05;;;24.40;39.90;;;;;;5085885;28;20028;-69